sensor_id;sensor_type;location;lat;lon;timestamp;P1;durP1;ratioP1;P2;durP2;ratioP2
15104;SDS011;7653;48.994;9.212;2022-12-08T00:01:26;17.73;;;10.83;;
15104;SDS011;7653;48.994;9.212;2022-12-08T00:03:53;16.20;;;10.20;;
15104;SDS011;7653;48.994;9.212;2022-12-08T00:06:38;14.53;;;9.27;;
15104;SDS011;7653;48.994;9.212;2022-12-08T00:11:57;16.93;;;9.77;;
15104;SDS011;7653;48.994;9.212;2022-12-08T00:14:28;18.60;;;9.93;;
15104;SDS011;7653;48.994;9.212;2022-12-08T00:16:56;19.83;;;10.87;;
15104;SDS011;7653;48.994;9.212;2022-12-08T00:19:24;15.47;;;9.50;;
15104;SDS011;7653;48.994;9.212;2022-12-08T00:21:50;16.77;;;10.00;;
15104;SDS011;7653;48.994;9.212;2022-12-08T00:24:18;17.97;;;10.50;;
15104;SDS011;7653;48.994;9.212;2022-12-08T00:26:45;18.40;;;10.77;;
15104;SDS011;7653;48.994;9.212;2022-12-08T00:29:12;19.47;;;10.33;;
15104;SDS011;7653;48.994;9.212;2022-12-08T00:31:38;16.97;;;10.77;;
15104;SDS011;7653;48.994;9.212;2022-12-08T00:34:04;16.47;;;10.07;;
15104;SDS011;7653;48.994;9.212;2022-12-08T00:36:31;22.10;;;11.40;;
15104;SDS011;7653;48.994;9.212;2022-12-08T00:38:57;17.37;;;11.00;;
15104;SDS011;7653;48.994;9.212;2022-12-08T00:41:24;18.07;;;10.47;;
15104;SDS011;7653;48.994;9.212;2022-12-08T00:44:10;15.57;;;10.10;;
15104;SDS011;7653;48.994;9.212;2022-12-08T00:46:44;18.27;;;11.00;;
15104;SDS011;7653;48.994;9.212;2022-12-08T00:49:11;16.37;;;9.87;;
15104;SDS011;7653;48.994;9.212;2022-12-08T00:51:37;18.67;;;10.00;;
15104;SDS011;7653;48.994;9.212;2022-12-08T00:54:03;18.53;;;10.63;;
15104;SDS011;7653;48.994;9.212;2022-12-08T00:56:30;19.37;;;10.73;;
15104;SDS011;7653;48.994;9.212;2022-12-08T00:58:56;16.40;;;10.13;;
15104;SDS011;7653;48.994;9.212;2022-12-08T01:01:22;18.67;;;10.20;;
15104;SDS011;7653;48.994;9.212;2022-12-08T01:03:48;17.93;;;11.13;;
15104;SDS011;7653;48.994;9.212;2022-12-08T01:06:14;16.93;;;9.57;;
15104;SDS011;7653;48.994;9.212;2022-12-08T01:08:45;16.90;;;9.73;;
15104;SDS011;7653;48.994;9.212;2022-12-08T01:11:14;14.97;;;8.80;;
15104;SDS011;7653;48.994;9.212;2022-12-08T01:13:42;16.50;;;10.10;;
15104;SDS011;7653;48.994;9.212;2022-12-08T01:16:08;13.93;;;8.93;;
15104;SDS011;7653;48.994;9.212;2022-12-08T01:18:34;19.03;;;10.37;;
15104;SDS011;7653;48.994;9.212;2022-12-08T01:21:04;19.10;;;11.13;;
15104;SDS011;7653;48.994;9.212;2022-12-08T01:23:32;15.93;;;10.13;;
15104;SDS011;7653;48.994;9.212;2022-12-08T01:26:04;19.03;;;11.03;;
15104;SDS011;7653;48.994;9.212;2022-12-08T01:28:32;17.30;;;11.67;;
15104;SDS011;7653;48.994;9.212;2022-12-08T01:31:00;18.67;;;11.00;;
15104;SDS011;7653;48.994;9.212;2022-12-08T01:33:27;20.27;;;11.00;;
15104;SDS011;7653;48.994;9.212;2022-12-08T01:35:53;19.07;;;9.97;;
15104;SDS011;7653;48.994;9.212;2022-12-08T01:38:21;16.33;;;10.20;;
15104;SDS011;7653;48.994;9.212;2022-12-08T01:40:47;18.07;;;10.73;;
15104;SDS011;7653;48.994;9.212;2022-12-08T01:43:18;18.77;;;10.80;;
15104;SDS011;7653;48.994;9.212;2022-12-08T01:45:45;15.13;;;9.43;;
15104;SDS011;7653;48.994;9.212;2022-12-08T01:48:17;14.97;;;9.33;;
15104;SDS011;7653;48.994;9.212;2022-12-08T01:50:46;16.13;;;9.30;;
15104;SDS011;7653;48.994;9.212;2022-12-08T01:53:15;15.73;;;8.77;;
15104;SDS011;7653;48.994;9.212;2022-12-08T01:56:27;15.03;;;9.03;;
15104;SDS011;7653;48.994;9.212;2022-12-08T01:59:16;14.40;;;8.37;;
15104;SDS011;7653;48.994;9.212;2022-12-08T02:01:43;14.57;;;8.83;;
15104;SDS011;7653;48.994;9.212;2022-12-08T02:04:09;18.00;;;9.33;;
15104;SDS011;7653;48.994;9.212;2022-12-08T02:06:38;16.83;;;9.57;;
15104;SDS011;7653;48.994;9.212;2022-12-08T02:09:07;16.10;;;9.37;;
15104;SDS011;7653;48.994;9.212;2022-12-08T02:11:35;16.83;;;9.73;;
15104;SDS011;7653;48.994;9.212;2022-12-08T02:14:05;14.17;;;8.43;;
15104;SDS011;7653;48.994;9.212;2022-12-08T02:22:19;15.50;;;9.23;;
15104;SDS011;7653;48.994;9.212;2022-12-08T02:25:18;16.80;;;8.87;;
15104;SDS011;7653;48.994;9.212;2022-12-08T02:36:27;13.73;;;8.33;;
15104;SDS011;7653;48.994;9.212;2022-12-08T02:45:05;14.47;;;8.30;;
15104;SDS011;7653;48.994;9.212;2022-12-08T02:47:41;14.23;;;8.20;;
15104;SDS011;7653;48.994;9.212;2022-12-08T02:50:09;13.73;;;8.17;;
15104;SDS011;7653;48.994;9.212;2022-12-08T02:52:39;15.37;;;8.30;;
15104;SDS011;7653;48.994;9.212;2022-12-08T02:55:14;14.07;;;7.87;;
15104;SDS011;7653;48.994;9.212;2022-12-08T03:06:31;18.40;;;9.43;;
15104;SDS011;7653;48.994;9.212;2022-12-08T03:12:04;18.63;;;9.10;;
15104;SDS011;7653;48.994;9.212;2022-12-08T03:14:54;16.90;;;9.40;;
15104;SDS011;7653;48.994;9.212;2022-12-08T03:17:24;15.67;;;8.50;;
15104;SDS011;7653;48.994;9.212;2022-12-08T03:20:14;14.80;;;9.13;;
15104;SDS011;7653;48.994;9.212;2022-12-08T03:22:44;16.90;;;9.13;;
15104;SDS011;7653;48.994;9.212;2022-12-08T03:25:13;15.10;;;8.73;;
15104;SDS011;7653;48.994;9.212;2022-12-08T03:27:45;15.27;;;8.60;;
15104;SDS011;7653;48.994;9.212;2022-12-08T03:30:12;15.50;;;8.67;;
15104;SDS011;7653;48.994;9.212;2022-12-08T03:33:42;17.20;;;9.50;;
15104;SDS011;7653;48.994;9.212;2022-12-08T03:35:40;16.90;;;9.23;;
15104;SDS011;7653;48.994;9.212;2022-12-08T03:38:11;16.43;;;8.87;;
15104;SDS011;7653;48.994;9.212;2022-12-08T03:40:40;16.27;;;8.67;;
15104;SDS011;7653;48.994;9.212;2022-12-08T03:43:08;17.17;;;9.13;;
15104;SDS011;7653;48.994;9.212;2022-12-08T03:45:35;18.10;;;9.40;;
15104;SDS011;7653;48.994;9.212;2022-12-08T03:48:06;14.70;;;8.87;;
15104;SDS011;7653;48.994;9.212;2022-12-08T03:50:34;17.70;;;8.63;;
15104;SDS011;7653;48.994;9.212;2022-12-08T03:53:00;16.67;;;8.67;;
15104;SDS011;7653;48.994;9.212;2022-12-08T03:55:30;18.80;;;8.87;;
15104;SDS011;7653;48.994;9.212;2022-12-08T03:57:57;16.23;;;8.43;;
15104;SDS011;7653;48.994;9.212;2022-12-08T04:00:23;20.63;;;9.37;;
15104;SDS011;7653;48.994;9.212;2022-12-08T04:02:50;16.97;;;9.03;;
15104;SDS011;7653;48.994;9.212;2022-12-08T04:05:18;18.07;;;9.30;;
15104;SDS011;7653;48.994;9.212;2022-12-08T04:07:44;16.40;;;9.07;;
15104;SDS011;7653;48.994;9.212;2022-12-08T04:10:10;14.40;;;7.90;;
15104;SDS011;7653;48.994;9.212;2022-12-08T04:12:36;17.37;;;9.03;;
15104;SDS011;7653;48.994;9.212;2022-12-08T04:15:03;14.80;;;9.07;;
15104;SDS011;7653;48.994;9.212;2022-12-08T04:17:29;17.03;;;9.27;;
15104;SDS011;7653;48.994;9.212;2022-12-08T04:19:55;17.00;;;9.07;;
15104;SDS011;7653;48.994;9.212;2022-12-08T04:22:21;15.63;;;8.33;;
15104;SDS011;7653;48.994;9.212;2022-12-08T04:24:49;15.43;;;9.73;;
15104;SDS011;7653;48.994;9.212;2022-12-08T04:27:15;16.00;;;8.97;;
15104;SDS011;7653;48.994;9.212;2022-12-08T04:29:41;15.37;;;8.63;;
15104;SDS011;7653;48.994;9.212;2022-12-08T04:32:08;16.10;;;9.43;;
15104;SDS011;7653;48.994;9.212;2022-12-08T04:34:34;15.67;;;9.20;;
15104;SDS011;7653;48.994;9.212;2022-12-08T04:37:00;16.60;;;9.67;;
15104;SDS011;7653;48.994;9.212;2022-12-08T04:39:27;15.40;;;9.17;;
15104;SDS011;7653;48.994;9.212;2022-12-08T04:41:55;16.77;;;9.77;;
15104;SDS011;7653;48.994;9.212;2022-12-08T04:44:25;20.23;;;10.50;;
15104;SDS011;7653;48.994;9.212;2022-12-08T04:46:52;14.83;;;9.47;;
15104;SDS011;7653;48.994;9.212;2022-12-08T04:49:18;18.53;;;9.97;;
15104;SDS011;7653;48.994;9.212;2022-12-08T04:51:45;15.33;;;9.73;;
15104;SDS011;7653;48.994;9.212;2022-12-08T04:54:11;16.40;;;9.00;;
15104;SDS011;7653;48.994;9.212;2022-12-08T04:56:37;12.70;;;8.77;;
15104;SDS011;7653;48.994;9.212;2022-12-08T04:59:04;16.27;;;9.03;;
15104;SDS011;7653;48.994;9.212;2022-12-08T05:01:30;15.07;;;8.87;;
15104;SDS011;7653;48.994;9.212;2022-12-08T05:03:56;15.73;;;9.00;;
15104;SDS011;7653;48.994;9.212;2022-12-08T05:06:23;16.53;;;9.13;;
15104;SDS011;7653;48.994;9.212;2022-12-08T05:08:49;15.73;;;9.67;;
15104;SDS011;7653;48.994;9.212;2022-12-08T05:11:15;16.33;;;9.63;;
15104;SDS011;7653;48.994;9.212;2022-12-08T05:13:42;15.63;;;10.27;;
15104;SDS011;7653;48.994;9.212;2022-12-08T05:16:10;15.20;;;9.27;;
15104;SDS011;7653;48.994;9.212;2022-12-08T05:18:37;16.40;;;9.77;;
15104;SDS011;7653;48.994;9.212;2022-12-08T05:21:04;15.77;;;10.27;;
15104;SDS011;7653;48.994;9.212;2022-12-08T05:23:30;15.50;;;10.60;;
15104;SDS011;7653;48.994;9.212;2022-12-08T05:25:56;18.00;;;9.73;;
15104;SDS011;7653;48.994;9.212;2022-12-08T05:28:22;16.27;;;9.57;;
15104;SDS011;7653;48.994;9.212;2022-12-08T05:30:48;16.77;;;9.57;;
15104;SDS011;7653;48.994;9.212;2022-12-08T05:33:14;15.57;;;9.57;;
15104;SDS011;7653;48.994;9.212;2022-12-08T05:35:40;16.63;;;9.43;;
15104;SDS011;7653;48.994;9.212;2022-12-08T05:38:06;16.30;;;9.77;;
15104;SDS011;7653;48.994;9.212;2022-12-08T05:40:32;14.67;;;10.07;;
15104;SDS011;7653;48.994;9.212;2022-12-08T05:42:58;16.83;;;10.10;;
15104;SDS011;7653;48.994;9.212;2022-12-08T05:45:24;15.90;;;10.03;;
15104;SDS011;7653;48.994;9.212;2022-12-08T05:47:51;16.47;;;10.47;;
15104;SDS011;7653;48.994;9.212;2022-12-08T05:50:18;15.50;;;9.90;;
15104;SDS011;7653;48.994;9.212;2022-12-08T05:52:44;18.90;;;10.00;;
15104;SDS011;7653;48.994;9.212;2022-12-08T05:55:10;15.30;;;9.37;;
15104;SDS011;7653;48.994;9.212;2022-12-08T05:57:36;15.57;;;10.43;;
15104;SDS011;7653;48.994;9.212;2022-12-08T06:00:02;17.77;;;10.00;;
15104;SDS011;7653;48.994;9.212;2022-12-08T06:02:31;18.07;;;10.63;;
15104;SDS011;7653;48.994;9.212;2022-12-08T06:04:57;16.20;;;10.07;;
15104;SDS011;7653;48.994;9.212;2022-12-08T06:07:23;17.30;;;10.80;;
15104;SDS011;7653;48.994;9.212;2022-12-08T06:09:50;20.40;;;11.37;;
15104;SDS011;7653;48.994;9.212;2022-12-08T06:12:17;16.23;;;10.07;;
15104;SDS011;7653;48.994;9.212;2022-12-08T06:14:43;17.83;;;10.10;;
15104;SDS011;7653;48.994;9.212;2022-12-08T06:17:08;18.87;;;10.93;;
15104;SDS011;7653;48.994;9.212;2022-12-08T06:19:35;18.60;;;11.53;;
15104;SDS011;7653;48.994;9.212;2022-12-08T06:22:01;20.97;;;11.23;;
15104;SDS011;7653;48.994;9.212;2022-12-08T06:24:27;20.03;;;10.60;;
15104;SDS011;7653;48.994;9.212;2022-12-08T06:26:53;20.20;;;11.80;;
15104;SDS011;7653;48.994;9.212;2022-12-08T06:29:19;21.30;;;11.13;;
15104;SDS011;7653;48.994;9.212;2022-12-08T06:31:45;22.37;;;11.80;;
15104;SDS011;7653;48.994;9.212;2022-12-08T06:34:11;18.30;;;10.83;;
15104;SDS011;7653;48.994;9.212;2022-12-08T06:36:37;19.80;;;10.53;;
15104;SDS011;7653;48.994;9.212;2022-12-08T06:39:03;18.53;;;11.53;;
15104;SDS011;7653;48.994;9.212;2022-12-08T06:41:29;17.73;;;11.40;;
15104;SDS011;7653;48.994;9.212;2022-12-08T06:43:55;17.53;;;10.53;;
15104;SDS011;7653;48.994;9.212;2022-12-08T06:46:22;18.23;;;11.37;;
15104;SDS011;7653;48.994;9.212;2022-12-08T06:48:48;17.97;;;11.20;;
15104;SDS011;7653;48.994;9.212;2022-12-08T06:51:18;20.33;;;11.87;;
15104;SDS011;7653;48.994;9.212;2022-12-08T06:53:46;18.63;;;11.53;;
15104;SDS011;7653;48.994;9.212;2022-12-08T06:56:13;17.13;;;10.50;;
15104;SDS011;7653;48.994;9.212;2022-12-08T06:58:45;17.67;;;10.87;;
15104;SDS011;7653;48.994;9.212;2022-12-08T07:01:12;19.27;;;10.97;;
15104;SDS011;7653;48.994;9.212;2022-12-08T07:03:41;17.03;;;11.17;;
15104;SDS011;7653;48.994;9.212;2022-12-08T07:06:15;16.33;;;11.10;;
15104;SDS011;7653;48.994;9.212;2022-12-08T07:08:45;17.50;;;10.63;;
15104;SDS011;7653;48.994;9.212;2022-12-08T07:11:12;19.67;;;12.00;;
15104;SDS011;7653;48.994;9.212;2022-12-08T07:13:42;17.83;;;10.93;;
15104;SDS011;7653;48.994;9.212;2022-12-08T07:16:08;23.90;;;11.30;;
15104;SDS011;7653;48.994;9.212;2022-12-08T07:18:36;19.87;;;11.03;;
15104;SDS011;7653;48.994;9.212;2022-12-08T07:21:09;18.90;;;11.40;;
15104;SDS011;7653;48.994;9.212;2022-12-08T07:23:37;18.30;;;10.90;;
15104;SDS011;7653;48.994;9.212;2022-12-08T07:26:05;19.50;;;11.53;;
15104;SDS011;7653;48.994;9.212;2022-12-08T07:28:34;20.07;;;11.33;;
15104;SDS011;7653;48.994;9.212;2022-12-08T07:31:29;17.97;;;11.80;;
15104;SDS011;7653;48.994;9.212;2022-12-08T07:33:56;18.80;;;11.57;;
15104;SDS011;7653;48.994;9.212;2022-12-08T07:36:23;20.23;;;11.30;;
15104;SDS011;7653;48.994;9.212;2022-12-08T07:38:49;19.93;;;10.60;;
15104;SDS011;7653;48.994;9.212;2022-12-08T07:41:18;19.80;;;11.30;;
15104;SDS011;7653;48.994;9.212;2022-12-08T07:43:49;17.97;;;11.00;;
15104;SDS011;7653;48.994;9.212;2022-12-08T07:46:17;20.33;;;11.83;;
15104;SDS011;7653;48.994;9.212;2022-12-08T07:48:44;18.53;;;11.17;;
15104;SDS011;7653;48.994;9.212;2022-12-08T07:51:11;16.93;;;11.00;;
15104;SDS011;7653;48.994;9.212;2022-12-08T07:53:39;19.97;;;11.53;;
15104;SDS011;7653;48.994;9.212;2022-12-08T07:56:10;16.67;;;11.03;;
15104;SDS011;7653;48.994;9.212;2022-12-08T07:58:37;17.60;;;11.37;;
15104;SDS011;7653;48.994;9.212;2022-12-08T08:01:03;21.03;;;11.90;;
15104;SDS011;7653;48.994;9.212;2022-12-08T08:03:30;21.30;;;12.23;;
15104;SDS011;7653;48.994;9.212;2022-12-08T08:06:03;21.20;;;12.03;;
15104;SDS011;7653;48.994;9.212;2022-12-08T08:08:30;19.77;;;11.27;;
15104;SDS011;7653;48.994;9.212;2022-12-08T08:10:58;19.50;;;11.87;;
15104;SDS011;7653;48.994;9.212;2022-12-08T08:13:25;15.80;;;11.00;;
15104;SDS011;7653;48.994;9.212;2022-12-08T08:15:51;19.30;;;10.13;;
15104;SDS011;7653;48.994;9.212;2022-12-08T08:18:17;22.40;;;14.43;;
15104;SDS011;7653;48.994;9.212;2022-12-08T08:20:44;18.10;;;11.80;;
15104;SDS011;7653;48.994;9.212;2022-12-08T08:23:10;18.20;;;10.13;;
15104;SDS011;7653;48.994;9.212;2022-12-08T08:25:36;14.77;;;9.90;;
15104;SDS011;7653;48.994;9.212;2022-12-08T08:28:02;17.53;;;11.47;;
15104;SDS011;7653;48.994;9.212;2022-12-08T08:30:27;18.47;;;10.20;;
15104;SDS011;7653;48.994;9.212;2022-12-08T08:32:53;18.30;;;10.57;;
15104;SDS011;7653;48.994;9.212;2022-12-08T08:35:18;19.83;;;10.70;;
15104;SDS011;7653;48.994;9.212;2022-12-08T08:37:44;15.17;;;9.83;;
15104;SDS011;7653;48.994;9.212;2022-12-08T08:40:10;15.70;;;10.13;;
15104;SDS011;7653;48.994;9.212;2022-12-08T08:42:36;14.70;;;9.63;;
15104;SDS011;7653;48.994;9.212;2022-12-08T08:45:02;13.57;;;9.47;;
15104;SDS011;7653;48.994;9.212;2022-12-08T08:47:27;15.33;;;9.80;;
15104;SDS011;7653;48.994;9.212;2022-12-08T08:49:54;17.03;;;9.43;;
15104;SDS011;7653;48.994;9.212;2022-12-08T08:52:23;14.27;;;9.40;;
15104;SDS011;7653;48.994;9.212;2022-12-08T08:54:50;14.80;;;9.20;;
15104;SDS011;7653;48.994;9.212;2022-12-08T08:57:16;15.50;;;9.37;;
15104;SDS011;7653;48.994;9.212;2022-12-08T08:59:42;15.60;;;9.13;;
15104;SDS011;7653;48.994;9.212;2022-12-08T09:02:12;12.10;;;8.70;;
15104;SDS011;7653;48.994;9.212;2022-12-08T09:04:41;13.43;;;8.23;;
15104;SDS011;7653;48.994;9.212;2022-12-08T09:07:08;12.53;;;8.40;;
15104;SDS011;7653;48.994;9.212;2022-12-08T09:09:33;17.03;;;9.70;;
15104;SDS011;7653;48.994;9.212;2022-12-08T09:11:59;15.93;;;9.13;;
15104;SDS011;7653;48.994;9.212;2022-12-08T09:14:25;13.17;;;8.83;;
15104;SDS011;7653;48.994;9.212;2022-12-08T09:16:51;17.57;;;8.50;;
15104;SDS011;7653;48.994;9.212;2022-12-08T09:19:17;14.10;;;9.20;;
15104;SDS011;7653;48.994;9.212;2022-12-08T09:21:43;12.90;;;8.50;;
15104;SDS011;7653;48.994;9.212;2022-12-08T09:24:08;13.70;;;8.53;;
15104;SDS011;7653;48.994;9.212;2022-12-08T09:26:39;14.20;;;8.63;;
15104;SDS011;7653;48.994;9.212;2022-12-08T09:29:06;14.77;;;8.63;;
15104;SDS011;7653;48.994;9.212;2022-12-08T09:31:32;14.37;;;9.53;;
15104;SDS011;7653;48.994;9.212;2022-12-08T09:33:58;13.43;;;9.10;;
15104;SDS011;7653;48.994;9.212;2022-12-08T09:36:24;13.43;;;8.93;;
15104;SDS011;7653;48.994;9.212;2022-12-08T09:38:50;15.50;;;9.20;;
15104;SDS011;7653;48.994;9.212;2022-12-08T09:46:22;17.40;;;8.63;;
15104;SDS011;7653;48.994;9.212;2022-12-08T09:48:55;12.40;;;8.43;;
15104;SDS011;7653;48.994;9.212;2022-12-08T09:51:26;14.80;;;8.30;;
15104;SDS011;7653;48.994;9.212;2022-12-08T09:54:47;12.83;;;8.47;;
15104;SDS011;7653;48.994;9.212;2022-12-08T09:57:09;12.80;;;8.70;;
15104;SDS011;7653;48.994;9.212;2022-12-08T09:59:40;11.33;;;7.80;;
15104;SDS011;7653;48.994;9.212;2022-12-08T10:02:29;14.23;;;8.20;;
15104;SDS011;7653;48.994;9.212;2022-12-08T10:04:56;11.63;;;8.47;;
15104;SDS011;7653;48.994;9.212;2022-12-08T10:07:26;13.93;;;7.63;;
15104;SDS011;7653;48.994;9.212;2022-12-08T10:13:27;12.30;;;7.60;;
15104;SDS011;7653;48.994;9.212;2022-12-08T10:19:10;12.13;;;7.50;;
15104;SDS011;7653;48.994;9.212;2022-12-08T10:21:56;12.13;;;7.70;;
15104;SDS011;7653;48.994;9.212;2022-12-08T10:24:35;11.97;;;7.90;;
15104;SDS011;7653;48.994;9.212;2022-12-08T10:27:29;13.47;;;8.83;;
15104;SDS011;7653;48.994;9.212;2022-12-08T10:30:11;14.33;;;7.90;;
15104;SDS011;7653;48.994;9.212;2022-12-08T10:33:14;14.40;;;8.27;;
15104;SDS011;7653;48.994;9.212;2022-12-08T10:35:44;10.97;;;7.97;;
15104;SDS011;7653;48.994;9.212;2022-12-08T10:38:35;11.07;;;7.97;;
15104;SDS011;7653;48.994;9.212;2022-12-08T10:43:57;12.33;;;7.97;;
15104;SDS011;7653;48.994;9.212;2022-12-08T10:46:31;12.67;;;8.67;;
15104;SDS011;7653;48.994;9.212;2022-12-08T10:49:23;10.73;;;7.53;;
15104;SDS011;7653;48.994;9.212;2022-12-08T10:51:56;12.27;;;8.20;;
15104;SDS011;7653;48.994;9.212;2022-12-08T10:57:10;12.47;;;7.73;;
15104;SDS011;7653;48.994;9.212;2022-12-08T10:59:56;13.30;;;8.80;;
15104;SDS011;7653;48.994;9.212;2022-12-08T11:02:29;11.73;;;8.13;;
15104;SDS011;7653;48.994;9.212;2022-12-08T11:05:36;12.13;;;8.00;;
15104;SDS011;7653;48.994;9.212;2022-12-08T11:08:11;12.30;;;8.00;;
15104;SDS011;7653;48.994;9.212;2022-12-08T11:10:56;13.67;;;7.87;;
15104;SDS011;7653;48.994;9.212;2022-12-08T11:13:25;11.77;;;8.20;;
15104;SDS011;7653;48.994;9.212;2022-12-08T11:16:17;12.73;;;7.33;;
15104;SDS011;7653;48.994;9.212;2022-12-08T11:18:53;12.20;;;8.23;;
15104;SDS011;7653;48.994;9.212;2022-12-08T11:21:39;13.50;;;7.40;;
15104;SDS011;7653;48.994;9.212;2022-12-08T11:29:26;10.23;;;6.90;;
15104;SDS011;7653;48.994;9.212;2022-12-08T11:32:10;10.13;;;7.60;;
15104;SDS011;7653;48.994;9.212;2022-12-08T11:37:27;13.03;;;8.07;;
15104;SDS011;7653;48.994;9.212;2022-12-08T11:39:58;11.13;;;6.83;;
15104;SDS011;7653;48.994;9.212;2022-12-08T11:42:34;10.27;;;7.17;;
15104;SDS011;7653;48.994;9.212;2022-12-08T11:45:23;12.50;;;7.80;;
15104;SDS011;7653;48.994;9.212;2022-12-08T11:53:17;10.70;;;7.60;;
15104;SDS011;7653;48.994;9.212;2022-12-08T11:55:59;10.77;;;7.07;;
15104;SDS011;7653;48.994;9.212;2022-12-08T11:58:38;11.20;;;6.70;;
15104;SDS011;7653;48.994;9.212;2022-12-08T12:01:15;10.23;;;6.83;;
15104;SDS011;7653;48.994;9.212;2022-12-08T12:03:52;12.07;;;7.47;;
15104;SDS011;7653;48.994;9.212;2022-12-08T12:12:36;11.33;;;7.10;;
15104;SDS011;7653;48.994;9.212;2022-12-08T12:20:31;10.70;;;6.27;;
15104;SDS011;7653;48.994;9.212;2022-12-08T12:23:01;9.77;;;7.17;;
15104;SDS011;7653;48.994;9.212;2022-12-08T12:26:02;9.53;;;7.37;;
15104;SDS011;7653;48.994;9.212;2022-12-08T12:31:31;12.37;;;7.17;;
15104;SDS011;7653;48.994;9.212;2022-12-08T12:34:07;13.63;;;7.97;;
15104;SDS011;7653;48.994;9.212;2022-12-08T12:36:49;9.93;;;7.00;;
15104;SDS011;7653;48.994;9.212;2022-12-08T12:39:27;12.07;;;7.80;;
15104;SDS011;7653;48.994;9.212;2022-12-08T12:41:58;10.03;;;7.33;;
15104;SDS011;7653;48.994;9.212;2022-12-08T12:46:58;10.03;;;6.63;;
15104;SDS011;7653;48.994;9.212;2022-12-08T13:02:25;10.20;;;6.90;;
15104;SDS011;7653;48.994;9.212;2022-12-08T13:10:38;12.83;;;6.80;;
15104;SDS011;7653;48.994;9.212;2022-12-08T13:15:51;9.20;;;6.30;;
15104;SDS011;7653;48.994;9.212;2022-12-08T13:29:33;9.13;;;6.43;;
15104;SDS011;7653;48.994;9.212;2022-12-08T13:37:45;10.00;;;5.70;;
15104;SDS011;7653;48.994;9.212;2022-12-08T13:40:47;14.03;;;5.97;;
15104;SDS011;7653;48.994;9.212;2022-12-08T13:46:45;7.87;;;4.97;;
15104;SDS011;7653;48.994;9.212;2022-12-08T13:49:16;9.70;;;5.47;;
15104;SDS011;7653;48.994;9.212;2022-12-08T13:52:17;7.73;;;5.00;;
15104;SDS011;7653;48.994;9.212;2022-12-08T13:55:41;7.40;;;5.10;;
15104;SDS011;7653;48.994;9.212;2022-12-08T13:58:30;11.27;;;6.00;;
15104;SDS011;7653;48.994;9.212;2022-12-08T14:06:36;8.73;;;5.13;;
15104;SDS011;7653;48.994;9.212;2022-12-08T14:09:11;8.33;;;4.70;;
15104;SDS011;7653;48.994;9.212;2022-12-08T14:14:51;6.93;;;5.00;;
15104;SDS011;7653;48.994;9.212;2022-12-08T14:17:28;6.43;;;4.90;;
15104;SDS011;7653;48.994;9.212;2022-12-08T14:22:37;8.13;;;4.60;;
15104;SDS011;7653;48.994;9.212;2022-12-08T14:25:05;8.70;;;4.80;;
15104;SDS011;7653;48.994;9.212;2022-12-08T14:27:36;6.70;;;4.67;;
15104;SDS011;7653;48.994;9.212;2022-12-08T14:30:05;7.27;;;5.13;;
15104;SDS011;7653;48.994;9.212;2022-12-08T14:38:18;7.90;;;5.37;;
15104;SDS011;7653;48.994;9.212;2022-12-08T14:43:56;9.67;;;5.53;;
15104;SDS011;7653;48.994;9.212;2022-12-08T14:56:59;7.67;;;4.63;;
15104;SDS011;7653;48.994;9.212;2022-12-08T15:05:04;9.83;;;5.63;;
15104;SDS011;7653;48.994;9.212;2022-12-08T15:10:36;10.40;;;6.17;;
15104;SDS011;7653;48.994;9.212;2022-12-08T15:15:59;8.60;;;6.23;;
15104;SDS011;7653;48.994;9.212;2022-12-08T15:21:17;11.13;;;7.20;;
15104;SDS011;7653;48.994;9.212;2022-12-08T15:23:44;7.43;;;5.40;;
15104;SDS011;7653;48.994;9.212;2022-12-08T15:26:21;10.07;;;5.93;;
15104;SDS011;7653;48.994;9.212;2022-12-08T15:28:48;6.83;;;5.40;;
15104;SDS011;7653;48.994;9.212;2022-12-08T15:31:16;7.83;;;4.70;;
15104;SDS011;7653;48.994;9.212;2022-12-08T15:33:42;6.97;;;5.03;;
15104;SDS011;7653;48.994;9.212;2022-12-08T15:36:08;7.07;;;4.83;;
15104;SDS011;7653;48.994;9.212;2022-12-08T15:38:35;6.87;;;4.60;;
15104;SDS011;7653;48.994;9.212;2022-12-08T15:41:05;8.40;;;5.13;;
15104;SDS011;7653;48.994;9.212;2022-12-08T15:43:31;7.90;;;4.80;;
15104;SDS011;7653;48.994;9.212;2022-12-08T15:45:57;8.83;;;5.10;;
15104;SDS011;7653;48.994;9.212;2022-12-08T15:48:24;8.63;;;4.70;;
15104;SDS011;7653;48.994;9.212;2022-12-08T15:50:52;6.83;;;4.90;;
15104;SDS011;7653;48.994;9.212;2022-12-08T15:53:18;8.20;;;5.43;;
15104;SDS011;7653;48.994;9.212;2022-12-08T15:55:45;9.50;;;5.47;;
15104;SDS011;7653;48.994;9.212;2022-12-08T15:58:15;9.07;;;5.77;;
15104;SDS011;7653;48.994;9.212;2022-12-08T16:00:47;12.67;;;8.80;;
15104;SDS011;7653;48.994;9.212;2022-12-08T16:03:29;14.87;;;10.20;;
15104;SDS011;7653;48.994;9.212;2022-12-08T16:05:56;12.77;;;8.73;;
15104;SDS011;7653;48.994;9.212;2022-12-08T16:08:27;9.40;;;6.43;;
15104;SDS011;7653;48.994;9.212;2022-12-08T16:10:54;10.57;;;5.83;;
15104;SDS011;7653;48.994;9.212;2022-12-08T16:13:40;7.50;;;5.40;;
15104;SDS011;7653;48.994;9.212;2022-12-08T16:16:18;11.87;;;6.87;;
15104;SDS011;7653;48.994;9.212;2022-12-08T16:18:52;10.57;;;6.43;;
15104;SDS011;7653;48.994;9.212;2022-12-08T16:21:18;10.53;;;6.20;;
15104;SDS011;7653;48.994;9.212;2022-12-08T16:23:44;12.00;;;9.07;;
15104;SDS011;7653;48.994;9.212;2022-12-08T16:26:14;14.43;;;9.60;;
15104;SDS011;7653;48.994;9.212;2022-12-08T16:28:44;14.70;;;11.13;;
15104;SDS011;7653;48.994;9.212;2022-12-08T16:31:11;16.33;;;10.27;;
15104;SDS011;7653;48.994;9.212;2022-12-08T16:33:37;13.37;;;7.43;;
15104;SDS011;7653;48.994;9.212;2022-12-08T16:36:03;8.87;;;5.73;;
15104;SDS011;7653;48.994;9.212;2022-12-08T16:38:29;11.47;;;6.93;;
15104;SDS011;7653;48.994;9.212;2022-12-08T16:40:54;10.47;;;6.63;;
15104;SDS011;7653;48.994;9.212;2022-12-08T16:43:41;7.77;;;5.27;;
15104;SDS011;7653;48.994;9.212;2022-12-08T16:46:52;13.17;;;6.40;;
15104;SDS011;7653;48.994;9.212;2022-12-08T16:49:21;15.60;;;8.40;;
15104;SDS011;7653;48.994;9.212;2022-12-08T17:45:17;21.63;;;12.90;;
15104;SDS011;7653;48.994;9.212;2022-12-08T17:47:43;16.80;;;11.03;;
15104;SDS011;7653;48.994;9.212;2022-12-08T17:50:08;16.03;;;10.60;;
15104;SDS011;7653;48.994;9.212;2022-12-08T17:52:34;18.13;;;11.90;;
15104;SDS011;7653;48.994;9.212;2022-12-08T17:55:00;13.60;;;9.30;;
15104;SDS011;7653;48.994;9.212;2022-12-08T17:57:26;11.50;;;8.87;;
15104;SDS011;7653;48.994;9.212;2022-12-08T17:59:52;12.70;;;8.27;;
15104;SDS011;7653;48.994;9.212;2022-12-08T18:02:18;11.97;;;7.87;;
15104;SDS011;7653;48.994;9.212;2022-12-08T18:04:44;11.67;;;7.80;;
15104;SDS011;7653;48.994;9.212;2022-12-08T18:07:11;10.37;;;6.83;;
15104;SDS011;7653;48.994;9.212;2022-12-08T18:09:36;12.23;;;7.33;;
15104;SDS011;7653;48.994;9.212;2022-12-08T18:12:02;11.80;;;6.97;;
15104;SDS011;7653;48.994;9.212;2022-12-08T18:14:28;13.17;;;8.47;;
15104;SDS011;7653;48.994;9.212;2022-12-08T18:16:53;11.00;;;7.17;;
15104;SDS011;7653;48.994;9.212;2022-12-08T18:19:19;9.97;;;6.50;;
15104;SDS011;7653;48.994;9.212;2022-12-08T18:21:45;11.20;;;7.37;;
15104;SDS011;7653;48.994;9.212;2022-12-08T18:24:18;8.50;;;5.87;;
15104;SDS011;7653;48.994;9.212;2022-12-08T18:26:46;8.80;;;6.80;;
15104;SDS011;7653;48.994;9.212;2022-12-08T18:29:12;9.50;;;6.30;;
15104;SDS011;7653;48.994;9.212;2022-12-08T18:31:38;10.33;;;6.33;;
15104;SDS011;7653;48.994;9.212;2022-12-08T18:34:04;10.53;;;6.63;;
15104;SDS011;7653;48.994;9.212;2022-12-08T18:36:29;10.10;;;6.33;;
15104;SDS011;7653;48.994;9.212;2022-12-08T18:38:55;9.77;;;6.37;;
15104;SDS011;7653;48.994;9.212;2022-12-08T18:41:22;11.40;;;7.20;;
15104;SDS011;7653;48.994;9.212;2022-12-08T18:43:49;12.27;;;7.93;;
15104;SDS011;7653;48.994;9.212;2022-12-08T18:46:16;10.50;;;7.70;;
15104;SDS011;7653;48.994;9.212;2022-12-08T18:48:44;10.70;;;8.07;;